Terminal Aerodrome Forecast
Issued by NWS Pittsburgh, PA

Current Version | Previous Version | Graphics & Text | Print | Product List | Glossary On
Versions: 1 2 3 4 5 6 7 8 9 10 11 12 13 14 15 16 17 18 19 20 21 22 23 24 25
000
FTUS41 KPBZ 212049 AAA
TAFPIT
TAF AMD
KPIT 212049Z 2121/2224 32012KT P6SM FEW050
     FM220400 34010G20KT P6SM BKN050
     FM221500 34010KT P6SM FEW250=

USA.gov is the U.S. government's official web portal to all federal, state and local government web resources and services.